Time;durP1;ratioP1;P1;durP2;ratioP2;P2;SDS_P1;SDS_P2;PMS_P1;PMS_P2;Temp;Humidity;BMP_temperature;BMP_pressure;BME280_temperature;BME280_humidity;BME280_pressure;Samples;Min_cycle;Max_cycle;Signal;HPM_P1;HPM_P2
2023/03/19 00:00:22;;;;;;;119.40;71.60;;;;;;;2.19;80.08;99096.86;109291;1250;59974;-75
2023/03/19 00:03:09;;;;;;;107.60;64.80;;;;;;;2.13;80.00;99096.50;109653;1250;65728;-75
2023/03/19 00:05:35;;;;;;;119.00;71.70;;;;;;;2.09;80.18;99094.70;109611;1250;59814;-75
2023/03/19 00:08:02;;;;;;;111.50;70.50;;;;;;;2.06;80.70;99096.04;108131;1250;1002607;-74
2023/03/19 00:10:29;;;;;;;113.60;67.80;;;;;;;2.02;80.78;99095.64;109656;1250;67790;-74
2023/03/19 00:12:55;;;;;;;116.80;69.20;;;;;;;1.96;80.83;99094.23;109674;1250;60733;-75
2023/03/19 00:15:22;;;;;;;116.10;72.20;;;;;;;1.91;81.23;99095.06;109663;1250;64742;-75
2023/03/19 00:17:49;;;;;;;117.90;72.10;;;;;;;1.86;81.81;99091.55;109647;1250;59752;-74
2023/03/19 00:20:17;;;;;;;118.90;72.10;;;;;;;1.81;82.63;99092.23;109691;1250;59943;-74
2023/03/19 00:22:43;;;;;;;119.00;69.90;;;;;;;1.78;82.96;99093.03;109625;1250;65518;-74
2023/03/19 00:25:10;;;;;;;121.00;71.10;;;;;;;1.74;83.47;99092.77;109397;1250;60798;-74
2023/03/19 00:27:37;;;;;;;115.80;69.10;;;;;;;1.71;83.78;99096.36;109667;1250;64745;-74
2023/03/19 00:30:06;;;;;;;116.20;71.10;;;;;;;1.70;84.08;99094.48;109629;1251;59779;-74
2023/03/19 00:32:34;;;;;;;104.20;67.00;;;;;;;1.68;84.04;99092.60;109668;1250;59813;-74
2023/03/19 00:35:01;;;;;;;114.20;70.40;;;;;;;1.65;83.82;99086.02;109636;1250;66665;-74
2023/03/19 00:37:27;;;;;;;114.70;72.50;;;;;;;1.63;84.05;99083.64;109686;1250;59818;-74
2023/03/19 00:39:54;;;;;;;112.20;69.90;;;;;;;1.60;84.32;99080.77;109281;1250;63702;-75
2023/03/19 00:42:22;;;;;;;120.50;69.30;;;;;;;1.56;84.64;99080.70;109675;1250;59751;-75
2023/03/19 00:44:49;;;;;;;112.80;70.60;;;;;;;1.51;85.08;99086.77;109711;1250;59819;-75
2023/03/19 00:47:15;;;;;;;112.50;72.10;;;;;;;1.46;85.14;99085.88;109677;1254;66465;-74
2023/03/19 00:49:42;;;;;;;119.50;72.80;;;;;;;1.43;85.56;99083.16;109323;1250;59976;-75
2023/03/19 00:52:09;;;;;;;113.30;67.80;;;;;;;1.41;85.91;99079.02;109375;1250;64838;-75
2023/03/19 00:54:35;;;;;;;110.30;70.00;;;;;;;1.38;86.41;99079.30;109618;1250;59756;-74
2023/03/19 00:57:02;;;;;;;106.90;67.70;;;;;;;1.34;86.42;99082.73;109634;1250;59811;-75
2023/03/19 00:59:30;;;;;;;115.60;68.90;;;;;;;1.30;86.11;99080.40;109650;1250;66551;-74
2023/03/19 01:01:57;;;;;;;108.70;66.60;;;;;;;1.27;86.20;99079.06;109388;1250;59999;-74
2023/03/19 01:04:23;;;;;;;112.30;66.70;;;;;;;1.26;86.25;99077.55;109643;1250;64092;-74
2023/03/19 01:06:50;;;;;;;109.60;66.90;;;;;;;1.21;86.69;99081.33;109635;1250;59774;-75
2023/03/19 01:09:17;;;;;;;105.10;66.30;;;;;;;1.13;86.81;99082.79;109682;1250;60060;-75
2023/03/19 01:11:43;;;;;;;115.60;68.80;;;;;;;1.07;87.08;99085.05;109614;1250;67416;-74
2023/03/19 01:14:10;;;;;;;106.70;66.10;;;;;;;1.00;88.04;99086.98;109313;1250;60705;-74
2023/03/19 01:16:37;;;;;;;100.00;62.40;;;;;;;0.95;88.17;99081.50;109685;1250;65047;-74
2023/03/19 01:19:04;;;;;;;103.50;63.20;;;;;;;0.95;87.77;99081.34;109654;1250;59769;-74
2023/03/19 01:21:32;;;;;;;106.60;62.10;;;;;;;0.98;87.75;99083.21;109697;1250;59787;-74
2023/03/19 01:23:58;;;;;;;102.60;63.70;;;;;;;0.99;87.80;99078.27;109684;1250;67811;-74
2023/03/19 01:26:26;;;;;;;96.00;60.40;;;;;;;0.99;87.86;99076.33;109327;1250;59960;-75
2023/03/19 01:28:53;;;;;;;95.30;60.30;;;;;;;0.97;88.42;99076.55;109629;1250;63653;-74
2023/03/19 01:31:20;;;;;;;100.10;61.50;;;;;;;0.93;88.39;99081.91;109621;1250;59790;-75
2023/03/19 01:33:47;;;;;;;94.50;60.00;;;;;;;0.90;88.24;99081.48;109698;1250;59641;-74
2023/03/19 01:36:13;;;;;;;97.20;60.20;;;;;;;0.88;88.11;99081.71;108925;1250;1002406;-74
2023/03/19 01:38:40;;;;;;;93.60;59.10;;;;;;;0.87;88.35;99079.98;109336;1250;59762;-74
2023/03/19 01:41:07;;;;;;;96.10;60.80;;;;;;;0.85;88.61;99076.18;109685;1250;59793;-75
2023/03/19 01:43:34;;;;;;;94.00;58.20;;;;;;;0.82;88.73;99076.95;109634;1250;59729;-75
2023/03/19 01:46:07;;;;;;;96.40;59.20;;;;;;;0.80;88.60;99076.66;109681;1250;59731;-75
2023/03/19 01:48:43;;;;;;;98.70;61.50;;;;;;;0.76;88.92;99077.64;109642;1251;67854;-74
2023/03/19 01:51:13;;;;;;;111.10;69.10;;;;;;;0.69;89.37;99072.40;109653;1250;60026;-75
2023/03/19 01:53:44;;;;;;;112.40;69.90;;;;;;;0.65;90.41;99073.02;109653;1251;64727;-75
2023/03/19 01:56:31;;;;;;;110.10;72.80;;;;;;;0.65;91.65;99071.11;109642;1250;59762;-75
2023/03/19 01:59:03;;;;;;;117.00;73.60;;;;;;;0.63;91.95;99069.40;109572;1250;60010;-75
2023/03/19 02:01:34;;;;;;;111.30;73.70;;;;;;;0.61;92.24;99072.24;109643;1250;67526;-74
2023/03/19 02:04:02;;;;;;;114.40;75.10;;;;;;;0.60;92.76;99071.75;109676;1250;60172;-74
2023/03/19 02:06:29;;;;;;;119.40;77.70;;;;;;;0.58;93.15;99071.98;109625;1250;65332;-75
2023/03/19 02:08:57;;;;;;;116.10;76.80;;;;;;;0.56;93.50;99076.58;109644;1250;60057;-75
2023/03/19 02:11:25;;;;;;;130.30;80.60;;;;;;;0.53;93.97;99078.06;109621;1251;59883;-74
2023/03/19 02:13:51;;;;;;;118.80;76.40;;;;;;;0.50;94.19;99080.92;109647;1251;67601;-75
2023/03/19 02:16:18;;;;;;;137.70;86.80;;;;;;;0.47;94.86;99075.41;109639;1251;59799;-75
2023/03/19 02:18:46;;;;;;;139.30;89.20;;;;;;;0.42;96.58;99075.34;109490;1250;64905;-74
2023/03/19 02:21:16;;;;;;;167.30;106.70;;;;;;;0.38;98.19;99073.70;109638;1250;59702;-74
2023/03/19 02:24:06;;;;;;;157.40;109.70;;;;;;;0.35;98.96;99076.23;109622;1250;59867;-74
2023/03/19 02:26:35;;;;;;;181.70;119.80;;;;;;;0.34;99.87;99080.27;109672;1250;67750;-74
2023/03/19 02:29:03;;;;;;;161.50;109.90;;;;;;;0.36;100.00;99083.37;109643;1251;59836;-75
2023/03/19 02:31:29;;;;;;;156.00;103.70;;;;;;;0.36;100.00;99083.36;109620;1251;63905;-74
2023/03/19 02:34:26;;;;;;;160.10;104.20;;;;;;;0.34;100.00;99083.42;109615;1251;60055;-74
2023/03/19 02:36:58;;;;;;;168.10;107.90;;;;;;;0.31;100.00;99088.55;109637;1251;59966;-74
2023/03/19 02:39:42;;;;;;;163.00;107.70;;;;;;;0.27;100.00;99089.88;109574;1254;67620;-74
2023/03/19 02:42:10;;;;;;;150.20;104.10;;;;;;;0.21;100.00;99088.95;109627;1250;60830;-74
2023/03/19 02:44:37;;;;;;;147.50;102.10;;;;;;;0.20;100.00;99089.33;109583;1250;64086;-74
2023/03/19 02:47:04;;;;;;;147.00;100.70;;;;;;;0.21;100.00;99092.97;109595;1250;60099;-75
2023/03/19 02:49:31;;;;;;;155.80;103.10;;;;;;;0.20;100.00;99097.55;109646;1251;59844;-74
2023/03/19 02:51:57;;;;;;;156.00;103.90;;;;;;;0.17;100.00;99095.35;109627;1251;66453;-75
2023/03/19 02:54:24;;;;;;;155.10;106.80;;;;;;;0.15;100.00;99100.13;109652;1250;59890;-75
2023/03/19 02:56:51;;;;;;;151.00;104.90;;;;;;;0.13;100.00;99105.92;108153;1251;1002643;-75
2023/03/19 02:59:19;;;;;;;142.20;96.10;;;;;;;0.11;100.00;99108.23;109525;1251;59828;-74
2023/03/19 03:01:46;;;;;;;140.10;97.90;;;;;;;0.09;100.00;99111.42;109582;1250;59961;-74
2023/03/19 03:04:15;;;;;;;131.50;90.50;;;;;;;0.05;100.00;99112.02;109593;1250;65504;-74
2023/03/19 03:06:42;;;;;;;141.10;93.20;;;;;;;0.05;100.00;99110.82;109648;1254;60700;-75
2023/03/19 03:09:11;;;;;;;140.30;95.10;;;;;;;0.06;100.00;99113.25;109646;1250;64916;-75
2023/03/19 03:11:40;;;;;;;122.30;85.70;;;;;;;0.06;100.00;99111.50;109396;1251;59807;-75
2023/03/19 03:14:10;;;;;;;128.20;84.10;;;;;;;0.04;100.00;99109.96;109675;1251;59891;-74
2023/03/19 03:16:37;;;;;;;136.10;87.60;;;;;;;0.04;100.00;99111.89;109613;1250;67945;-74
2023/03/19 03:19:04;;;;;;;139.70;96.80;;;;;;;0.02;100.00;99114.91;109662;1250;60680;-74
2023/03/19 03:21:31;;;;;;;121.40;84.40;;;;;;;-0.02;100.00;99115.86;109650;1251;64806;-74
2023/03/19 03:23:58;;;;;;;132.40;87.60;;;;;;;-0.04;100.00;99116.27;109634;1250;59784;-74
2023/03/19 03:26:24;;;;;;;127.40;87.70;;;;;;;-0.05;100.00;99116.98;109629;1251;60238;-74
2023/03/19 03:28:51;;;;;;;131.30;91.50;;;;;;;-0.07;100.00;99117.36;109303;1250;65755;-74
2023/03/19 03:31:18;;;;;;;116.70;76.40;;;;;;;-0.10;100.00;99120.58;109669;1250;60971;-74
2023/03/19 03:33:45;;;;;;;128.30;84.10;;;;;;;-0.12;100.00;99122.73;109622;1251;64732;-75
2023/03/19 03:36:12;;;;;;;120.70;81.50;;;;;;;-0.13;100.00;99123.79;109633;1250;59764;-74
2023/03/19 03:38:39;;;;;;;120.80;80.70;;;;;;;-0.14;100.00;99121.02;109571;1251;59717;-74
2023/03/19 03:41:06;;;;;;;119.80;81.70;;;;;;;-0.15;100.00;99120.86;109644;1251;67584;-75
2023/03/19 03:43:33;;;;;;;116.70;78.20;;;;;;;-0.17;100.00;99118.79;109644;1250;60766;-74
2023/03/19 03:45:59;;;;;;;119.10;79.90;;;;;;;-0.19;100.00;99119.04;109639;1251;64711;-74
2023/03/19 03:48:26;;;;;;;116.40;80.30;;;;;;;-0.21;100.00;99120.48;109629;1251;59782;-74
2023/03/19 03:50:53;;;;;;;121.10;81.20;;;;;;;-0.23;100.00;99121.21;109622;1251;59885;-74
2023/03/19 03:53:19;;;;;;;119.30;78.40;;;;;;;-0.26;100.00;99121.95;109604;1251;67536;-75
2023/03/19 03:55:46;;;;;;;121.20;79.80;;;;;;;-0.30;100.00;99121.70;108830;1250;1002486;-75
2023/03/19 03:58:12;;;;;;;115.80;75.80;;;;;;;-0.32;100.00;99120.88;109604;1251;64766;-74
2023/03/19 04:00:39;;;;;;;105.30;71.00;;;;;;;-0.35;100.00;99117.78;109380;1250;59831;-75
2023/03/19 04:03:06;;;;;;;107.20;69.30;;;;;;;-0.30;100.00;99109.83;109648;1250;59910;-76
2023/03/19 04:05:32;;;;;;;110.00;68.90;;;;;;;-0.23;100.00;99110.73;109608;1250;65202;-75
2023/03/19 04:07:59;;;;;;;108.40;69.50;;;;;;;-0.18;100.00;99111.14;109651;1251;60223;-75
2023/03/19 04:10:26;;;;;;;108.20;67.90;;;;;;;-0.13;100.00;99109.48;109381;1250;64274;-74
2023/03/19 04:12:53;;;;;;;106.80;65.80;;;;;;;-0.08;100.00;99110.58;109641;1250;59734;-74
2023/03/19 04:15:20;;;;;;;107.70;66.40;;;;;;;-0.03;100.00;99115.88;109618;1251;59898;-74
2023/03/19 04:17:47;;;;;;;103.50;65.90;;;;;;;0.00;100.00;99108.65;109627;1250;67605;-74
2023/03/19 04:20:16;;;;;;;98.70;63.40;;;;;;;0.02;100.00;99106.34;109592;1251;59831;-75
2023/03/19 04:22:44;;;;;;;99.00;61.00;;;;;;;0.03;100.00;99107.02;109536;1251;64729;-75
2023/03/19 04:25:11;;;;;;;105.00;62.50;;;;;;;0.05;100.00;99106.63;109636;1251;59791;-74
2023/03/19 04:27:37;;;;;;;94.60;60.50;;;;;;;0.05;100.00;99105.58;109651;1250;59793;-75
2023/03/19 04:30:04;;;;;;;93.80;61.20;;;;;;;0.05;100.00;99102.77;109297;1251;67543;-74
2023/03/19 04:32:32;;;;;;;95.60;59.10;;;;;;;0.07;100.00;99101.52;109634;1250;61233;-74
2023/03/19 04:34:59;;;;;;;84.50;52.00;;;;;;;0.06;100.00;99100.31;109607;1251;65487;-74
2023/03/19 04:37:25;;;;;;;78.40;49.90;;;;;;;0.10;100.00;99099.35;109604;1251;59755;-74
2023/03/19 04:39:53;;;;;;;83.40;52.20;;;;;;;0.13;100.00;99100.00;109654;1251;59676;-74
2023/03/19 04:42:20;;;;;;;76.10;49.90;;;;;;;0.15;100.00;99100.29;109657;1251;67522;-74
2023/03/19 04:44:47;;;;;;;74.20;50.50;;;;;;;0.17;100.00;99100.23;109655;1250;60701;-75
2023/03/19 04:47:14;;;;;;;77.60;48.80;;;;;;;0.21;100.00;99101.19;109583;1250;65075;-74
2023/03/19 04:49:41;;;;;;;73.20;51.00;;;;;;;0.26;100.00;99100.91;109610;1251;59834;-75
2023/03/19 04:52:08;;;;;;;68.70;47.00;;;;;;;0.33;100.00;99095.14;109625;1250;59667;-74
2023/03/19 04:54:34;;;;;;;71.00;47.40;;;;;;;0.40;100.00;99090.42;109598;1251;66710;-75
2023/03/19 04:57:01;;;;;;;67.70;46.00;;;;;;;0.45;100.00;99090.13;109625;1251;61067;-75
2023/03/19 04:59:28;;;;;;;68.30;47.30;;;;;;;0.49;100.00;99093.53;109589;1251;64833;-75
2023/03/19 05:01:54;;;;;;;74.70;48.90;;;;;;;0.53;100.00;99096.59;109619;1250;59876;-75
2023/03/19 05:04:22;;;;;;;81.50;53.50;;;;;;;0.55;100.00;99098.27;109584;1250;59775;-75
2023/03/19 05:06:49;;;;;;;72.40;49.60;;;;;;;0.58;100.00;99099.08;109632;1251;68187;-75
2023/03/19 05:09:15;;;;;;;76.90;50.50;;;;;;;0.70;100.00;99097.04;109388;1252;59833;-75
2023/03/19 05:11:42;;;;;;;76.50;52.60;;;;;;;1.00;100.00;99094.16;109610;1251;65042;-75
2023/03/19 05:14:09;;;;;;;77.50;54.00;;;;;;;1.30;99.24;99086.52;109594;1251;59782;-75
2023/03/19 05:16:36;;;;;;;76.00;52.90;;;;;;;1.58;97.93;99085.55;109600;1250;59735;-74
2023/03/19 05:19:02;;;;;;;78.50;53.60;;;;;;;1.87;96.58;99083.13;109598;1250;68458;-74
2023/03/19 05:21:29;;;;;;;72.60;51.20;;;;;;;2.13;95.32;99079.66;109585;1250;60069;-74
2023/03/19 05:23:56;;;;;;;77.80;57.00;;;;;;;2.36;94.22;99080.88;109594;1251;62421;-74
2023/03/19 05:26:22;;;;;;;108.70;73.70;;;;;;;2.57;93.13;99078.27;109573;1251;59852;-74
2023/03/19 05:28:49;;;;;;;100.10;71.20;;;;;;;2.75;92.32;99077.67;109389;1250;59767;-74
2023/03/19 05:31:15;;;;;;;87.50;68.30;;;;;;;2.80;91.86;99082.06;109664;1251;67490;-74
2023/03/19 05:33:42;;;;;;;79.70;64.40;;;;;;;3.03;91.16;99080.92;109562;1251;60811;-74
2023/03/19 05:36:08;;;;;;;69.30;51.40;;;;;;;3.28;89.99;99080.20;109567;1250;63771;-74
2023/03/19 05:38:35;;;;;;;63.10;48.20;;;;;;;3.52;89.08;99079.85;109610;1250;59813;-74
2023/03/19 05:41:07;;;;;;;64.20;49.40;;;;;;;3.74;88.13;99080.26;109564;1251;59809;-74
2023/03/19 05:43:33;;;;;;;63.20;45.30;;;;;;;4.00;87.64;99080.34;109559;1250;67516;-74
2023/03/19 05:46:00;;;;;;;55.10;41.90;;;;;;;4.27;86.81;99080.52;109638;1250;61130;-74
2023/03/19 05:48:27;;;;;;;57.20;40.90;;;;;;;4.54;85.86;99079.42;109603;1250;65023;-74
2023/03/19 05:50:53;;;;;;;56.20;41.50;;;;;;;4.77;85.29;99083.73;109566;1250;59829;-75
2023/03/19 05:53:21;;;;;;;54.50;41.40;;;;;;;4.96;84.14;99082.95;109387;1250;59888;-74
2023/03/19 05:55:48;;;;;;;58.00;42.20;;;;;;;5.09;83.14;99082.38;109606;1250;66446;-75
2023/03/19 05:58:15;;;;;;;57.10;41.70;;;;;;;5.10;82.77;99090.60;109345;1250;59860;-74
2023/03/19 06:00:42;;;;;;;52.60;40.60;;;;;;;5.14;82.11;99092.02;109600;1250;65178;-74
2023/03/19 06:03:09;;;;;;;54.40;40.60;;;;;;;5.04;81.90;99095.27;109583;1250;59887;-74
2023/03/19 06:05:35;;;;;;;57.90;41.90;;;;;;;4.91;81.65;99102.70;109648;1250;59859;-74
2023/03/19 06:08:03;;;;;;;58.90;43.10;;;;;;;4.80;81.52;99105.80;109622;1250;67525;-74
2023/03/19 06:10:29;;;;;;;58.50;43.20;;;;;;;4.72;81.55;99108.41;109659;1250;59806;-74
2023/03/19 06:12:56;;;;;;;56.10;40.50;;;;;;;4.66;81.55;99109.73;109293;1250;64739;-75
2023/03/19 06:15:22;;;;;;;54.30;41.20;;;;;;;4.60;81.70;99110.11;109627;1250;60097;-75
2023/03/19 06:17:49;;;;;;;55.20;41.50;;;;;;;4.59;81.88;99108.95;109320;1250;59836;-74
2023/03/19 06:20:16;;;;;;;55.10;40.80;;;;;;;4.58;81.66;99104.08;109599;1251;66922;-75
2023/03/19 06:22:44;;;;;;;58.30;41.10;;;;;;;4.55;81.36;99099.23;109398;1250;61306;-75
2023/03/19 06:25:10;;;;;;;58.30;42.70;;;;;;;4.53;81.41;99099.85;109580;1250;65259;-75
2023/03/19 06:27:37;;;;;;;65.70;49.50;;;;;;;4.55;81.88;99100.29;109652;1250;59895;-75
2023/03/19 06:30:04;;;;;;;58.70;46.30;;;;;;;4.61;82.08;99100.94;109536;1250;59866;-75
2023/03/19 06:32:31;;;;;;;55.90;44.60;;;;;;;4.68;82.07;99101.91;109598;1250;67849;-75
2023/03/19 06:34:58;;;;;;;54.40;41.40;;;;;;;4.74;81.95;99096.55;109592;1250;61353;-75
2023/03/19 06:37:25;;;;;;;56.50;41.60;;;;;;;4.80;81.50;99104.36;109617;1250;65218;-75
2023/03/19 06:39:53;;;;;;;51.90;40.30;;;;;;;4.87;81.39;99107.61;109611;1250;59764;-75
2023/03/19 06:42:21;;;;;;;52.90;39.70;;;;;;;4.97;81.56;99107.90;109305;1255;59873;-75
2023/03/19 06:44:47;;;;;;;48.60;36.50;;;;;;;5.09;81.32;99110.39;109566;1250;67864;-75
2023/03/19 06:47:14;;;;;;;45.30;35.40;;;;;;;5.17;80.93;99111.61;109691;1250;60098;-75
2023/03/19 06:49:41;;;;;;;43.20;33.50;;;;;;;5.27;80.62;99113.13;109621;1250;63722;-75
2023/03/19 06:52:08;;;;;;;44.40;33.10;;;;;;;5.35;80.36;99111.71;109590;1250;60016;-75
2023/03/19 06:54:35;;;;;;;45.10;35.20;;;;;;;5.47;80.32;99112.26;109624;1250;59747;-75
2023/03/19 06:57:01;;;;;;;44.00;32.90;;;;;;;5.59;79.98;99116.30;109370;1250;66767;-75
2023/03/19 06:59:28;;;;;;;48.50;33.40;;;;;;;5.70;79.62;99114.58;109444;1250;61085;-75
2023/03/19 07:01:55;;;;;;;44.00;33.20;;;;;;;5.81;79.37;99110.90;109593;1250;64626;-75
2023/03/19 07:04:22;;;;;;;43.50;32.50;;;;;;;5.93;79.20;99110.04;109585;1250;59810;-75
2023/03/19 07:06:49;;;;;;;42.10;32.50;;;;;;;6.06;79.10;99109.24;109473;1250;59845;-75
2023/03/19 07:09:16;;;;;;;40.80;31.90;;;;;;;6.23;78.87;99103.34;109615;1250;67706;-75
2023/03/19 07:11:43;;;;;;;44.10;31.50;;;;;;;6.40;78.61;99099.52;109633;1250;60751;-75
2023/03/19 07:14:10;;;;;;;41.30;32.20;;;;;;;6.58;78.09;99096.52;109598;1250;65279;-75
2023/03/19 07:16:36;;;;;;;41.20;31.00;;;;;;;6.77;77.95;99098.05;109580;1250;59783;-74
2023/03/19 07:19:03;;;;;;;39.80;30.20;;;;;;;7.00;77.60;99096.40;109689;1250;59788;-74
2023/03/19 07:21:30;;;;;;;40.20;31.90;;;;;;;7.21;77.07;99090.73;109578;1250;67955;-75
2023/03/19 07:23:57;;;;;;;42.00;30.90;;;;;;;7.42;77.13;99086.98;109596;1251;59843;-75
2023/03/19 07:26:24;;;;;;;40.70;29.50;;;;;;;7.64;76.64;99084.95;109329;1250;62437;-76
2023/03/19 07:28:51;;;;;;;36.40;28.90;;;;;;;7.82;76.16;99081.30;109650;1250;59781;-74
2023/03/19 07:31:18;;;;;;;39.40;29.20;;;;;;;8.00;75.84;99079.44;109629;1250;59901;-74
2023/03/19 07:33:45;;;;;;;34.90;27.20;;;;;;;8.22;75.82;99077.86;109543;1250;67522;-75
2023/03/19 07:36:11;;;;;;;31.10;25.30;;;;;;;8.49;75.41;99083.27;109679;1250;60016;-75
2023/03/19 07:38:38;;;;;;;31.30;24.50;;;;;;;8.73;74.60;99084.92;109671;1250;64710;-75
2023/03/19 07:41:05;;;;;;;34.00;25.30;;;;;;;8.89;74.14;99084.33;109615;1250;59763;-75
2023/03/19 07:43:33;;;;;;;29.40;23.40;;;;;;;9.00;73.67;99086.33;109596;1250;59865;-74
2023/03/19 07:46:00;;;;;;;34.30;25.40;;;;;;;9.10;73.33;99087.00;109632;1250;66787;-75
2023/03/19 07:48:27;;;;;;;31.20;24.10;;;;;;;9.22;73.01;99085.40;109665;1250;59868;-74
2023/03/19 07:50:54;;;;;;;31.10;24.80;;;;;;;9.34;72.27;99082.00;109641;1250;65074;-74
2023/03/19 07:53:21;;;;;;;30.30;25.90;;;;;;;9.42;71.50;99081.20;109604;1250;59714;-74
2023/03/19 07:55:48;;;;;;;35.80;28.10;;;;;;;9.50;71.30;99081.61;109623;1250;59680;-75
2023/03/19 07:58:15;;;;;;;34.40;28.20;;;;;;;9.59;71.41;99080.35;109650;1250;67670;-74
2023/03/19 08:00:43;;;;;;;36.60;29.80;;;;;;;9.67;71.17;99079.66;109635;1250;60881;-75
2023/03/19 08:03:11;;;;;;;40.90;29.30;;;;;;;9.75;70.89;99076.14;109346;1250;65212;-74
2023/03/19 08:05:38;;;;;;;35.30;26.90;;;;;;;9.84;70.74;99075.23;109620;1250;59750;-75
2023/03/19 08:08:05;;;;;;;34.50;29.00;;;;;;;9.90;70.31;99075.41;109612;1250;59742;-75
2023/03/19 08:10:32;;;;;;;36.80;27.50;;;;;;;9.96;70.08;99068.11;109612;1250;66816;-75
2023/03/19 08:12:59;;;;;;;34.80;27.40;;;;;;;10.04;69.67;99067.06;109650;1250;60020;-75
2023/03/19 08:15:26;;;;;;;29.60;24.60;;;;;;;10.14;69.48;99075.10;109383;1250;72793;-75
2023/03/19 08:18:00;;;;;;;32.00;23.60;;;;;;;10.23;68.99;99071.52;109575;1250;59761;-75
2023/03/19 08:20:27;;;;;;;30.00;25.10;;;;;;;10.36;68.57;99069.46;109580;1250;59989;-75
2023/03/19 08:22:55;;;;;;;34.40;25.40;;;;;;;10.50;68.63;99066.95;109605;1250;66743;-75
2023/03/19 08:25:23;;;;;;;27.50;22.10;;;;;;;10.64;68.31;99061.25;109623;1252;61056;-75
2023/03/19 08:27:49;;;;;;;32.40;25.20;;;;;;;10.78;67.98;99064.21;109636;1250;65064;-75
2023/03/19 08:30:16;;;;;;;28.40;22.10;;;;;;;10.93;67.19;99063.05;109626;1250;60018;-75
2023/03/19 08:32:46;;;;;;;21.60;18.90;;;;;;;11.04;66.36;99058.60;109604;1250;59858;-75
2023/03/19 08:35:13;;;;;;;29.70;23.30;;;;;;;11.12;66.14;99059.11;109609;1250;68078;-74
2023/03/19 08:37:39;;;;;;;27.00;21.40;;;;;;;11.21;66.04;99053.34;109138;1250;60178;-75
2023/03/19 08:40:07;;;;;;;19.60;15.80;;;;;;;11.27;65.60;99057.49;109575;1252;65081;-76
2023/03/19 08:42:37;;;;;;;18.30;15.60;;;;;;;11.33;64.78;99056.24;109614;1250;59855;-75
2023/03/19 08:45:30;;;;;;;19.80;16.00;;;;;;;11.44;65.05;99061.66;109613;1250;59820;-75
2023/03/19 08:47:57;;;;;;;26.80;20.80;;;;;;;11.62;64.85;99060.42;109637;1250;67843;-75
2023/03/19 08:50:24;;;;;;;25.40;20.10;;;;;;;11.71;64.26;99061.20;109614;1250;60337;-74
2023/03/19 08:52:51;;;;;;;26.80;20.70;;;;;;;11.77;63.85;99062.93;109590;1250;65042;-74
2023/03/19 08:55:18;;;;;;;27.40;22.10;;;;;;;11.86;63.80;99067.65;109594;1250;60039;-74
2023/03/19 08:57:44;;;;;;;22.40;18.90;;;;;;;11.93;63.22;99062.20;109631;1250;59774;-74
2023/03/19 09:00:12;;;;;;;24.60;21.50;;;;;;;11.99;62.62;99061.57;109607;1250;68542;-74
2023/03/19 09:02:39;;;;;;;25.40;22.60;;;;;;;12.04;62.14;99060.15;109633;1250;60618;-74
2023/03/19 09:05:06;;;;;;;21.80;18.50;;;;;;;12.09;61.76;99060.86;109606;1250;65053;-75
2023/03/19 09:07:33;;;;;;;22.70;17.90;;;;;;;12.17;61.44;99058.14;109601;1250;59827;-74
2023/03/19 09:09:59;;;;;;;21.90;17.00;;;;;;;12.29;61.05;99056.89;109603;1250;59665;-75
2023/03/19 09:12:26;;;;;;;23.30;19.60;;;;;;;12.40;60.63;99054.54;109646;1250;66832;-76
2023/03/19 09:14:53;;;;;;;19.50;17.30;;;;;;;12.53;60.51;99056.17;109664;1250;61042;-75
2023/03/19 09:17:20;;;;;;;19.00;15.60;;;;;;;12.68;59.82;99057.24;109650;1250;65114;-75
2023/03/19 09:19:46;;;;;;;16.80;14.00;;;;;;;12.81;59.06;99054.50;109565;1250;59791;-74
2023/03/19 09:22:13;;;;;;;16.60;13.80;;;;;;;12.93;58.39;99053.61;109596;1250;59893;-75
2023/03/19 09:24:40;;;;;;;13.80;12.10;;;;;;;13.08;57.97;99056.41;109630;1250;69207;-76
2023/03/19 09:27:07;;;;;;;12.50;10.50;;;;;;;13.22;57.86;99049.28;109662;1250;60731;-75
2023/03/19 09:29:33;;;;;;;14.20;10.90;;;;;;;13.34;57.42;99048.67;109554;1250;64738;-74
2023/03/19 09:32:00;;;;;;;12.20;9.80;;;;;;;13.48;57.20;99047.99;109560;1250;59761;-75
2023/03/19 09:34:27;;;;;;;12.80;10.70;;;;;;;13.64;56.82;99044.42;109571;1250;59686;-75
2023/03/19 09:36:53;;;;;;;12.50;9.70;;;;;;;13.76;55.98;99046.15;109618;1250;66461;-74
2023/03/19 09:39:20;;;;;;;11.90;10.70;;;;;;;13.90;55.84;99045.72;109621;1250;61432;-75
2023/03/19 09:42:13;;;;;;;13.20;10.50;;;;;;;14.05;55.80;99044.73;109603;1250;62913;-76
2023/03/19 09:44:44;;;;;;;11.20;9.40;;;;;;;14.18;55.57;99042.08;109601;1250;59718;-76
2023/03/19 09:47:25;;;;;;;11.50;9.20;;;;;;;14.31;55.05;99038.13;109194;1250;59780;-74
2023/03/19 09:49:58;;;;;;;12.50;10.10;;;;;;;14.43;54.25;99037.33;109624;1249;67486;-74
2023/03/19 09:52:33;;;;;;;11.50;10.00;;;;;;;14.50;53.56;99033.35;109654;1250;61111;-75
2023/03/19 09:55:26;;;;;;;12.70;9.80;;;;;;;14.52;52.74;99035.92;109611;1250;64794;-74
2023/03/19 09:57:56;;;;;;;12.00;9.70;;;;;;;14.54;52.23;99028.98;109594;1250;59765;-75
2023/03/19 10:00:35;;;;;;;10.70;9.30;;;;;;;14.58;51.82;99028.43;109596;1250;59741;-75
2023/03/19 10:03:15;;;;;;;11.70;10.50;;;;;;;14.68;51.52;99025.83;109299;1250;68055;-75
2023/03/19 10:06:02;;;;;;;13.00;9.20;;;;;;;14.78;51.29;99024.46;109614;1250;60719;-75
2023/03/19 10:09:12;;;;;;;11.40;9.50;;;;;;;14.92;50.64;99025.92;109597;1250;65061;-75
2023/03/19 10:12:01;;;;;;;8.10;7.30;;;;;;;15.08;50.54;99028.30;108937;1259;59844;-75
2023/03/19 10:14:42;;;;;;;7.80;7.00;;;;;;;15.32;49.98;99024.88;108909;1259;59895;-75
2023/03/19 10:17:16;;;;;;;8.10;7.00;;;;;;;15.48;48.59;99019.57;108950;1259;66949;-75
2023/03/19 10:19:46;;;;;;;8.90;7.20;;;;;;;15.55;47.87;99013.77;109002;1259;60039;-75
2023/03/19 10:22:21;;;;;;;12.40;10.30;;;;;;;15.71;48.04;99009.29;108951;1259;65295;-75
2023/03/19 10:24:51;;;;;;;9.30;7.60;;;;;;;15.98;48.18;99001.77;108931;1258;59817;-75
2023/03/19 10:27:20;;;;;;;8.80;7.90;;;;;;;16.17;48.17;98999.91;108934;1259;59751;-76
2023/03/19 10:29:47;;;;;;;9.90;8.90;;;;;;;16.31;47.84;98998.05;108902;1259;66668;-75
2023/03/19 10:32:24;;;;;;;8.10;7.30;;;;;;;16.40;47.86;98995.27;108987;1258;61028;-75
2023/03/19 10:34:54;;;;;;;8.30;6.70;;;;;;;16.51;47.75;98994.98;108925;1259;63776;-75
2023/03/19 10:37:25;;;;;;;8.00;6.70;;;;;;;16.57;47.23;98993.58;108949;1258;59807;-76
2023/03/19 10:39:55;;;;;;;7.30;6.50;;;;;;;16.49;45.79;98989.29;108956;1259;59855;-75
2023/03/19 10:42:52;;;;;;;27.70;15.70;;;;;;;16.36;45.82;98989.73;108964;1259;67950;-75
2023/03/19 10:45:30;;;;;;;9.10;7.50;;;;;;;16.41;46.04;98987.84;108988;1259;61144;-75
2023/03/19 10:47:58;;;;;;;8.20;7.40;;;;;;;16.45;45.79;98984.95;108995;1250;64815;-75
2023/03/19 10:50:30;;;;;;;7.80;7.00;;;;;;;16.45;45.09;98984.41;108347;1250;1654881;-75
2023/03/19 10:53:20;;;;;;;8.00;7.10;;;;;;;16.35;44.43;98983.34;109544;1250;59693;-75
2023/03/19 10:55:54;;;;;;;7.20;6.40;;;;;;;16.32;44.95;98978.77;109592;1250;67473;-75
2023/03/19 10:58:26;;;;;;;7.90;6.40;;;;;;;16.32;44.32;98971.95;109632;1250;61037;-75
2023/03/19 11:01:02;;;;;;;6.90;6.10;;;;;;;16.29;44.53;98974.63;109620;1250;64789;-75
2023/03/19 11:03:34;;;;;;;6.20;5.60;;;;;;;16.29;44.56;98974.73;109563;1250;59745;-75
2023/03/19 11:06:19;;;;;;;6.70;5.90;;;;;;;16.29;44.62;98969.90;109586;1250;59692;-75
2023/03/19 11:08:54;;;;;;;6.10;5.50;;;;;;;16.35;44.66;98964.37;109654;1250;67604;-75
2023/03/19 11:11:43;;;;;;;8.20;6.70;;;;;;;16.50;44.31;98964.26;109645;1250;60651;-76
2023/03/19 11:14:17;;;;;;;7.60;6.20;;;;;;;16.63;44.13;98958.42;109636;1250;64281;-76
2023/03/19 11:17:17;;;;;;;7.50;6.80;;;;;;;16.68;43.67;98953.44;109579;1250;59744;-76